No se requiere un especial cuidado respecto a la situación meteorológica. No hay avisos

Informes METAR

 

LEZL - Sevilla, Spain
Distancia de la estación: ENE 8km
Actualización: 21/10/2014 08:30
Despejado
Despejado
 Viento de variable
Viento: variable 2 km/h
Temperatura: 17°C
Rocío: 13°C
Humedad: 77%
Barómetro: 1021 hPa
Resumen: Despejado
Visibilidad: mayor de 10 km
2014/10/21 06:30 LEZL 210630Z VRB01KT CAVOK 17/13 Q1021 NOSIG
LEMO - Morón, Spain
Distancia de la estación: SE 43km
Actualización: 21/10/2014 08:00
Despejado
Despejado
 Viento de ENE
Viento: ENE 4 km/h
Temperatura: 16°C
Rocío: 12°C
Humedad: 77%
Barómetro: 1021 hPa
Resumen: Despejado
Visibilidad: mayor de 10 km
2014/10/21 06:00 LEMO 210600Z 06002KT CAVOK 16/12 Q1021 NOSIG
LEJR - Jeréz, Spain
Distancia de la estación: S 71km
Actualización: 21/10/2014 09:00
Despejado
Despejado
 Viento de variable
Viento: variable 2 km/h
Temperatura: 15°C
Rocío: 14°C
Humedad: 94%
Barómetro: 1021 hPa
Resumen: Despejado
Visibilidad: mayor de 10 km
2014/10/21 07:00 LEJR 210700Z VRB01KT CAVOK 15/14 Q1021
 
LERT - Rota, Spain
Distancia de la estación: SSO 89km
Actualización: 21/10/2014 08:00
Parcialmente nuboso
Parcialmente nuboso
 Viento de ENE
Viento: ENE 7 km/h
Temperatura: 17°C
Rocío: 15°C
Humedad: 88%
Barómetro: 1020 hPa
Nubes: Parcialmente nuboso
Visibilidad: 9 km
2014/10/21 06:00 LERT 210600Z 06004KT 020V080 9000 NSC 17/15 Q1020 NOSIG
LEMG - Málaga, Spain
Distancia de la estación: ESE 157km
Actualización: 21/10/2014 08:30
Despejado
Despejado
 Viento de ONO
Viento: ONO 13 km/h
Temperatura: 15°C
Rocío: 12°C
Humedad: 82%
Barómetro: 1021 hPa
Resumen: Despejado
Visibilidad: mayor de 10 km
2014/10/21 06:30 LEMG 210630Z 29007KT CAVOK 15/12 Q1021 NOSIG
LEBA - Córdoba, Spain
Distancia de la estación: ENE 115km
Actualización: 21/10/2014 08:00
Despejado
Despejado
 Viento de E
Viento: E 2 km/h
Temperatura: 15°C
Rocío: 13°C
Humedad: 88%
Barómetro: 1022 hPa
Resumen: Despejado
Visibilidad: mayor de 10 km
2014/10/21 06:00 LEBA 210600Z 09001KT CAVOK 15/13 Q1022
 
LEGR - Granada, Spain
Distancia de la estación: E 198km
Actualización: 21/10/2014 08:30
Despejado
Despejado
 Viento de calm
Viento: Calma
Temperatura: 9°C
Rocío: 8°C
Humedad: 94%
Barómetro: 1025 hPa
Resumen: Despejado
Visibilidad: mayor de 10 km
2014/10/21 06:30 LEGR 210630Z 00000KT CAVOK 09/08 Q1025
LEAM - Almería, Spain
Distancia de la estación: E 326km
Actualización: 21/10/2014 08:30
Despejado
Despejado
 Viento de variable
Viento: variable 4 km/h
Temperatura: 18°C
Rocío: 13°C
Humedad: 73%
Barómetro: 1020 hPa
Resumen: Despejado
Visibilidad: mayor de 10 km
2014/10/21 06:30 LEAM 210630Z VRB02KT CAVOK 18/13 Q1020
LEMD - Madrid/Barajas, Spain
Distancia de la estación: NNE 402km
Actualización: 21/10/2014 08:30
Despejado
Despejado
 Viento de NNE
Viento: NNE 7 km/h
Temperatura: 10°C
Sensación térmica: 9°C
Rocío: 9°C
Humedad: 94%
Barómetro: 1026 hPa
Resumen: Despejado
Visibilidad: mayor de 10 km
2014/10/21 06:30 LEMD 210630Z 02004KT CAVOK 10/09 Q1026 NOSIG
 
LEVD - Valladolid, Spain
Distancia de la estación: N 492km
Actualización: 21/10/2014 08:30
Despejado
Despejado
 Viento de O
Viento: O 6 km/h
Temperatura: 11°C
Rocío: 10°C
Humedad: 94%
Barómetro: 1027 hPa
Resumen: Despejado
Visibilidad: mayor de 10 km
2014/10/21 06:30 LEVD 210630Z 26003KT CAVOK 11/10 Q1027
LEBL - Barcelona, Spain
Distancia de la estación: NE 816km
Actualización: 21/10/2014 08:30
Despejado
Despejado
 Viento de NO
Viento: NO 17 km/h
Temperatura: 17°C
Rocío: 12°C
Humedad: 73%
Barómetro: 1018 hPa
Resumen: Despejado
Visibilidad: mayor de 10 km
2014/10/21 06:30 LEBL 210630Z 31009KT 250V340 CAVOK 17/12 Q1018 NOSIG
LEVC - Valencia, Spain
Distancia de la estación: ENE 535km
Actualización: 21/10/2014 08:30
Despejado
Despejado
 Viento de O
Viento: O 7 km/h
Temperatura: 18°C
Rocío: 9°C
Humedad: 56%
Barómetro: 1020 hPa
Resumen: Despejado
Visibilidad: mayor de 10 km
2014/10/21 06:30 LEVC 210630Z 28004KT CAVOK 18/09 Q1020 NOSIG